Bristol, New Hampshire
Current Conditions -  °F | °C
As of 3:15 AM on Monday 24 Nov 2014 (Local Time) from K1P1 Reporting Station
Haze Haze  
Wind Chill: 33°   Ceiling: 4200
Heat Index: 33°   Visibility: 3mi
Dew Point: 33°   Wind: 0mph
Humidity: 100%   Direction: NA
Pressure: 30.01"   Gusts: NA
Location:  43.6°N, 71.75°W
Report Text: K1P1 240815Z AUTO 00000KT 3SM BR SCT034 BKN042 OVC048 01/01 A3001 RMK AO2 T00050005
Loading
Personal Weather Stations






























Interactive Weather Map New forecast layout! Learn more

10-Day Weather Forecast

Advertisements
Track Severe Weather on mobile